createdAt,value
2022-09-05T00:00:21.055Z,21.06
2022-09-05T00:03:21.174Z,21.05
2022-09-05T00:06:05.533Z,20.96
2022-09-05T00:09:10.414Z,20.95
2022-09-05T00:12:06.327Z,20.98
2022-09-05T00:15:16.188Z,20.93
2022-09-05T00:20:49.680Z,20.97
2022-09-05T00:24:19.806Z,20.95
2022-09-05T00:25:30.720Z,20.86
2022-09-05T00:28:26.921Z,20.85
2022-09-05T00:31:53.957Z,20.79
2022-09-05T00:35:06.598Z,20.75
2022-09-05T00:37:40.523Z,20.70
2022-09-05T00:40:29.097Z,20.69
2022-09-05T00:43:11.455Z,20.67
2022-09-05T00:46:00.163Z,20.64
2022-09-05T00:48:46.786Z,20.60
2022-09-05T00:51:34.761Z,20.55
2022-09-05T00:54:02.115Z,20.55
2022-09-05T00:57:03.898Z,20.53
2022-09-05T01:00:18.127Z,20.53
2022-09-05T01:02:51.564Z,20.53
2022-09-05T01:06:02.516Z,20.50
2022-09-05T01:09:25.178Z,20.48
2022-09-05T01:12:30.789Z,20.44
2022-09-05T01:15:33.946Z,20.43
2022-09-05T01:18:29.693Z,20.41
2022-09-05T01:21:52.510Z,20.35
2022-09-05T01:24:34.469Z,20.34
2022-09-05T01:29:15.111Z,20.33
2022-09-05T01:31:20.965Z,20.32
2022-09-05T01:34:15.185Z,20.25
2022-09-05T01:37:33.062Z,20.24
2022-09-05T01:41:18.583Z,20.25
2022-09-05T01:44:48.629Z,20.24
2022-09-05T01:48:05.977Z,20.17
2022-09-05T01:51:28.313Z,20.20
2022-09-05T01:54:31.285Z,20.12
2022-09-05T01:57:24.207Z,20.08
2022-09-05T02:00:41.761Z,20.02
2022-09-05T02:08:16.727Z,19.96
2022-09-05T02:11:05.180Z,19.95
2022-09-05T02:13:35.203Z,19.94
2022-09-05T02:16:11.220Z,19.95
2022-09-05T02:19:14.788Z,19.91
2022-09-05T02:22:10.734Z,19.88
2022-09-05T02:24:48.766Z,19.86
2022-09-05T02:27:48.965Z,19.84
2022-09-05T02:30:16.691Z,19.80
2022-09-05T02:33:23.717Z,19.77
2022-09-05T02:36:33.518Z,19.76
2022-09-05T02:45:00.201Z,19.80
2022-09-05T02:45:21.828Z,19.76
2022-09-05T02:45:54.315Z,19.74
2022-09-05T02:48:51.057Z,19.75
2022-09-05T02:57:26.183Z,19.74
2022-09-05T02:57:40.245Z,19.73
2022-09-05T02:58:59.284Z,19.68
2022-09-05T03:02:03.356Z,19.61
2022-09-05T03:05:07.905Z,19.67
2022-09-05T03:08:47.657Z,19.66
2022-09-05T03:12:28.545Z,19.65
2022-09-05T03:15:33.449Z,19.63
2022-09-05T03:18:47.230Z,19.62
2022-09-05T03:22:13.271Z,19.61
2022-09-05T03:25:17.560Z,19.60
2022-09-05T03:28:41.509Z,19.55
2022-09-05T03:32:00.752Z,19.51
2022-09-05T03:35:03.174Z,19.48
2022-09-05T03:38:22.004Z,19.44
2022-09-05T03:41:23.847Z,19.45
2022-09-05T03:44:52.673Z,19.45
2022-09-05T03:47:54.009Z,19.42
2022-09-05T03:57:04.465Z,19.42
2022-09-05T03:57:15.049Z,19.42
2022-09-05T03:57:50.010Z,19.36
2022-09-05T04:00:35.098Z,19.35
2022-09-05T04:08:09.003Z,19.34
2022-09-05T04:08:17.766Z,19.36
2022-09-05T04:09:51.497Z,19.30
2022-09-05T04:12:33.847Z,19.30
2022-09-05T04:15:19.493Z,19.30
2022-09-05T04:18:04.040Z,19.33
2022-09-05T04:21:03.850Z,19.35
2022-09-05T04:24:00.887Z,19.37
2022-09-05T04:26:41.132Z,19.36
2022-09-05T04:29:41.663Z,19.32
2022-09-05T04:33:08.130Z,19.29
2022-09-05T04:35:55.076Z,19.26
2022-09-05T04:38:39.463Z,19.26
2022-09-05T04:41:16.552Z,19.27
2022-09-05T04:43:59.828Z,19.31
2022-09-05T04:46:55.835Z,19.34
2022-09-05T04:49:33.551Z,19.38
2022-09-05T04:52:06.458Z,19.43
2022-09-05T04:54:51.079Z,19.44
2022-09-05T04:58:07.265Z,19.42
2022-09-05T05:06:00.143Z,19.49
2022-09-05T05:06:12.915Z,19.55
2022-09-05T05:07:09.231Z,19.56
2022-09-05T05:09:51.601Z,19.60
2022-09-05T05:17:58.094Z,19.55
2022-09-05T05:18:13.108Z,19.53
2022-09-05T05:19:21.608Z,19.54
2022-09-05T05:22:02.047Z,19.56
2022-09-05T05:24:33.953Z,19.61
2022-09-05T05:27:37.564Z,19.70
2022-09-05T05:30:11.197Z,19.78
2022-09-05T05:32:51.732Z,19.81
2022-09-05T05:35:33.485Z,19.91
2022-09-05T05:38:35.923Z,19.99
2022-09-05T05:41:55.373Z,20.02
2022-09-05T05:44:31.420Z,20.01
2022-09-05T05:47:16.827Z,20.00
2022-09-05T05:50:11.257Z,20.00
2022-09-05T05:53:41.078Z,20.03
2022-09-05T05:56:51.403Z,20.04
2022-09-05T06:00:00.930Z,20.07
2022-09-05T06:03:25.220Z,20.11
2022-09-05T06:06:36.393Z,20.17
2022-09-05T06:14:52.022Z,20.28
2022-09-05T06:15:07.079Z,20.35
2022-09-05T06:17:23.955Z,20.42
2022-09-05T06:22:05.589Z,20.55
2022-09-05T06:23:44.554Z,20.66
2022-09-05T06:26:27.489Z,20.80
2022-09-05T06:29:42.842Z,20.89
2022-09-05T06:33:05.098Z,20.98
2022-09-05T06:36:15.257Z,20.97
2022-09-05T06:39:46.602Z,21.05
2022-09-05T06:42:44.046Z,21.10
2022-09-05T06:46:09.234Z,21.13
2022-09-05T06:49:30.160Z,21.19
2022-09-05T06:52:36.478Z,21.36
2022-09-05T06:55:47.218Z,21.52
2022-09-05T06:59:14.000Z,21.67
2022-09-05T07:02:09.758Z,21.83
2022-09-05T07:05:38.502Z,22.07
2022-09-05T07:08:31.976Z,22.34
2022-09-05T07:12:00.012Z,22.68
2022-09-05T07:14:35.705Z,22.82
2022-09-05T07:17:18.190Z,22.87
2022-09-05T07:20:01.928Z,22.94
2022-09-05T07:23:20.311Z,22.96
2022-09-05T07:25:54.400Z,23.02
2022-09-05T07:28:28.704Z,22.96
2022-09-05T07:31:27.696Z,22.91
2022-09-05T07:34:28.660Z,23.06
2022-09-05T07:37:15.493Z,23.02
2022-09-05T07:40:11.416Z,22.99
2022-09-05T07:43:10.807Z,23.05
2022-09-05T07:45:56.413Z,23.05
2022-09-05T07:48:35.151Z,23.09
2022-09-05T07:56:56.083Z,23.14
2022-09-05T07:57:01.477Z,23.11
2022-09-05T07:57:30.652Z,22.93
2022-09-05T08:00:25.943Z,22.86
2022-09-05T08:03:01.151Z,22.68
2022-09-05T08:05:41.123Z,22.56
2022-09-05T08:08:25.490Z,22.52
2022-09-05T08:11:24.389Z,22.61
2022-09-05T08:14:46.093Z,22.87
2022-09-05T08:17:27.470Z,23.06
2022-09-05T08:20:32.630Z,23.37
2022-09-05T08:23:40.679Z,23.48
2022-09-05T08:26:33.920Z,23.71
2022-09-05T08:29:35.091Z,23.80
2022-09-05T08:32:13.117Z,23.89
2022-09-05T08:34:46.481Z,23.86
2022-09-05T08:37:21.952Z,23.85
2022-09-05T08:40:11.687Z,24.07
2022-09-05T08:45:42.318Z,24.11
2022-09-05T08:46:42.013Z,24.01
2022-09-05T08:50:01.715Z,24.01
2022-09-05T08:53:17.374Z,23.93
2022-09-05T08:56:24.146Z,24.00
2022-09-05T09:00:14.590Z,24.11
2022-09-05T09:03:18.682Z,24.29
2022-09-05T09:06:34.594Z,24.60
2022-09-05T09:09:18.415Z,24.69
2022-09-05T09:13:13.725Z,24.83
2022-09-05T09:16:21.310Z,24.59
2022-09-05T09:18:48.640Z,24.69
2022-09-05T09:21:47.143Z,24.73
2022-09-05T09:24:36.032Z,24.84
2022-09-05T09:28:48.344Z,25.01
2022-09-05T09:30:49.114Z,25.05
2022-09-05T09:33:33.956Z,25.12
2022-09-05T09:36:49.146Z,24.94
2022-09-05T09:39:50.270Z,25.23
2022-09-05T09:42:40.123Z,25.53
2022-09-05T09:45:56.075Z,25.61
2022-09-05T09:48:38.623Z,25.68
2022-09-05T09:51:43.491Z,25.76
2022-09-05T09:55:01.829Z,25.84
2022-09-05T09:58:39.403Z,26.11
2022-09-05T10:01:38.565Z,26.13
2022-09-05T10:10:34.545Z,26.17
2022-09-05T10:10:44.036Z,26.13
2022-09-05T10:11:55.859Z,26.39
2022-09-05T10:14:49.144Z,26.69
2022-09-05T10:18:09.765Z,26.74
2022-09-05T10:21:16.616Z,26.66
2022-09-05T10:24:26.096Z,26.34
2022-09-05T10:27:19.111Z,26.82
2022-09-05T10:30:50.323Z,26.98
2022-09-05T10:35:13.680Z,27.00
2022-09-05T10:36:59.069Z,27.35
2022-09-05T10:39:35.431Z,27.47
2022-09-05T10:42:18.736Z,27.39
2022-09-05T10:44:55.474Z,27.49
2022-09-05T10:48:08.450Z,27.78
2022-09-05T10:50:56.629Z,28.09
2022-09-05T10:54:05.583Z,27.52
2022-09-05T10:57:04.874Z,26.83
2022-09-05T11:02:28.889Z,27.40
2022-09-05T11:03:30.248Z,28.16
2022-09-05T11:06:09.372Z,28.64
2022-09-05T11:09:16.446Z,28.88
2022-09-05T11:11:53.515Z,27.98
2022-09-05T11:14:52.370Z,27.05
2022-09-05T11:17:54.478Z,26.54
2022-09-05T11:21:09.103Z,26.28
2022-09-05T11:23:57.436Z,27.20
2022-09-05T11:27:23.311Z,28.54
2022-09-05T11:30:30.166Z,30.06
2022-09-05T11:39:51.657Z,29.77
2022-09-05T11:40:08.286Z,27.95
2022-09-05T11:40:30.228Z,29.08
2022-09-05T11:43:50.047Z,29.83
2022-09-05T11:47:27.229Z,29.55
2022-09-05T11:50:20.987Z,29.46
2022-09-05T11:53:57.446Z,28.92
2022-09-05T11:57:32.109Z,28.62
2022-09-05T12:00:45.301Z,28.71
2022-09-05T12:03:58.701Z,29.04
2022-09-05T12:06:56.324Z,29.75
2022-09-05T12:09:53.565Z,29.77
2022-09-05T12:13:03.734Z,29.61
2022-09-05T12:15:35.904Z,29.41
2022-09-05T12:18:25.837Z,29.44
2022-09-05T12:21:27.042Z,29.42
2022-09-05T12:25:16.627Z,28.98
2022-09-05T12:27:38.398Z,29.10
2022-09-05T12:30:14.403Z,29.86
2022-09-05T12:36:05.271Z,29.99
2022-09-05T12:40:27.655Z,29.80
2022-09-05T12:41:37.999Z,29.83
2022-09-05T12:43:52.694Z,29.81
2022-09-05T12:46:24.012Z,29.80
2022-09-05T12:49:06.739Z,29.67
2022-09-05T12:51:46.658Z,29.83
2022-09-05T12:54:34.607Z,29.89
2022-09-05T13:02:55.843Z,30.04
2022-09-05T13:03:08.114Z,30.00
2022-09-05T13:03:34.810Z,28.67
2022-09-05T13:06:24.945Z,28.98
2022-09-05T13:09:07.402Z,29.75
2022-09-05T13:14:48.560Z,30.05
2022-09-05T13:15:19.962Z,29.99
2022-09-05T13:18:13.974Z,30.24
2022-09-05T13:20:55.430Z,30.46
2022-09-05T13:23:50.587Z,30.56
2022-09-05T13:26:38.349Z,30.72
2022-09-05T13:29:23.316Z,31.43
2022-09-05T13:37:58.552Z,31.67
2022-09-05T13:38:13.188Z,33.41
2022-09-05T13:38:29.295Z,34.02
2022-09-05T13:40:51.322Z,35.27
2022-09-05T13:43:26.639Z,35.90
2022-09-05T13:46:24.393Z,35.95
2022-09-05T13:49:27.611Z,37.18
2022-09-05T13:52:35.679Z,37.39
2022-09-05T13:55:45.738Z,35.67
2022-09-05T13:58:34.260Z,36.72
2022-09-05T14:01:38.890Z,37.66
2022-09-05T14:05:08.373Z,38.11
2022-09-05T14:08:23.491Z,37.87
2022-09-05T14:11:17.380Z,38.00
2022-09-05T14:20:27.363Z,38.30
2022-09-05T14:23:07.471Z,37.18
2022-09-05T14:25:42.849Z,37.41
2022-09-05T14:28:40.866Z,38.45
2022-09-05T14:35:16.367Z,38.16
2022-09-05T14:37:44.259Z,36.28
2022-09-05T14:38:15.773Z,37.33
2022-09-05T14:41:39.933Z,37.66
2022-09-05T14:44:48.616Z,38.05
2022-09-05T14:47:32.555Z,37.77
2022-09-05T14:51:02.464Z,39.60
2022-09-05T14:58:16.204Z,38.19
2022-09-05T15:02:44.703Z,39.58
2022-09-05T15:03:00.781Z,39.30
2022-09-05T15:05:30.863Z,39.09
2022-09-05T15:11:24.000Z,38.82
2022-09-05T15:12:18.961Z,38.11
2022-09-05T15:14:08.928Z,38.41
2022-09-05T15:16:45.695Z,39.20
2022-09-05T15:20:05.103Z,38.10
2022-09-05T15:22:44.755Z,38.24
2022-09-05T15:25:21.608Z,37.57
2022-09-05T15:27:49.906Z,37.23
2022-09-05T15:30:35.191Z,34.86
2022-09-05T15:33:28.319Z,36.07
2022-09-05T15:35:58.639Z,36.62
2022-09-05T15:38:46.704Z,36.57
2022-09-05T15:41:29.260Z,36.59
2022-09-05T15:44:09.659Z,36.75
2022-09-05T15:47:01.711Z,36.87
2022-09-05T15:49:39.099Z,37.39
2022-09-05T15:52:18.488Z,37.41
2022-09-05T15:55:10.655Z,37.79
2022-09-05T15:57:54.309Z,37.45
2022-09-05T16:00:33.908Z,36.29
2022-09-05T16:06:00.799Z,35.15
2022-09-05T16:10:36.900Z,35.41
2022-09-05T16:10:45.766Z,35.37
2022-09-05T16:12:18.811Z,35.41
2022-09-05T16:15:35.862Z,34.65
2022-09-05T16:23:14.996Z,34.23
2022-09-05T16:23:25.847Z,34.67
2022-09-05T16:23:41.541Z,34.48
2022-09-05T16:26:24.998Z,35.18
2022-09-05T16:29:19.471Z,35.30
2022-09-05T16:32:02.147Z,35.75
2022-09-05T16:34:52.538Z,35.92
2022-09-05T16:38:07.172Z,35.83
2022-09-05T16:40:42.504Z,35.23
2022-09-05T16:43:33.194Z,35.49
2022-09-05T16:47:04.300Z,35.73
2022-09-05T16:49:56.310Z,35.54
2022-09-05T16:53:01.604Z,35.43
2022-09-05T16:55:55.421Z,33.82
2022-09-05T16:58:49.519Z,33.59
2022-09-05T17:02:06.714Z,33.93
2022-09-05T17:05:28.306Z,33.91
2022-09-05T17:08:30.256Z,33.44
2022-09-05T17:11:06.253Z,33.14
2022-09-05T17:13:57.616Z,32.62
2022-09-05T17:17:43.920Z,31.99
2022-09-05T17:20:14.613Z,31.28
2022-09-05T17:24:45.116Z,30.51
2022-09-05T17:29:24.828Z,29.42
2022-09-05T17:29:25.746Z,29.86
2022-09-05T17:31:56.214Z,29.44
2022-09-05T17:35:16.543Z,29.27
2022-09-05T17:38:16.552Z,28.92
2022-09-05T17:41:43.143Z,28.53
2022-09-05T17:44:41.842Z,28.19
2022-09-05T17:47:28.879Z,27.95
2022-09-05T17:50:33.422Z,27.57
2022-09-05T17:53:26.575Z,27.44
2022-09-05T17:55:55.119Z,27.32
2022-09-05T17:58:49.602Z,27.37
2022-09-05T18:01:28.867Z,27.26
2022-09-05T18:04:16.476Z,27.22
2022-09-05T18:06:59.132Z,27.13
2022-09-05T18:10:12.045Z,26.97
2022-09-05T18:13:12.451Z,26.86
2022-09-05T18:15:39.170Z,26.76
2022-09-05T18:18:16.928Z,26.61
2022-09-05T18:21:21.416Z,26.49
2022-09-05T18:24:12.022Z,26.43
2022-09-05T18:26:48.827Z,26.41
2022-09-05T18:29:58.550Z,26.27
2022-09-05T18:33:54.233Z,26.07
2022-09-05T18:35:55.562Z,25.87
2022-09-05T18:38:51.736Z,25.90
2022-09-05T18:41:24.861Z,25.81
2022-09-05T18:44:13.367Z,25.71
2022-09-05T18:47:01.435Z,25.63
2022-09-05T18:50:21.866Z,25.54
2022-09-05T18:52:41.051Z,25.49
2022-09-05T18:56:09.172Z,25.47
2022-09-05T18:58:25.845Z,25.37
2022-09-05T19:00:55.321Z,25.30
2022-09-05T19:03:30.662Z,25.28
2022-09-05T19:06:35.142Z,25.28
2022-09-05T19:09:07.672Z,25.26
2022-09-05T19:12:16.247Z,25.21
2022-09-05T19:14:54.091Z,25.06
2022-09-05T19:17:37.555Z,25.02
2022-09-05T19:20:33.384Z,24.98
2022-09-05T19:23:11.621Z,24.95
2022-09-05T19:25:46.557Z,24.90
2022-09-05T19:36:50.604Z,24.81
2022-09-05T19:37:14.646Z,24.79
2022-09-05T19:37:15.603Z,24.84
2022-09-05T19:37:38.648Z,24.75
2022-09-05T19:47:31.468Z,24.59
2022-09-05T19:47:41.870Z,24.48
2022-09-05T19:47:46.996Z,24.39
2022-09-05T19:49:13.363Z,24.30
2022-09-05T19:51:42.624Z,24.25
2022-09-05T19:54:38.121Z,24.15
2022-09-05T19:57:19.449Z,24.00
2022-09-05T19:59:55.944Z,24.03
2022-09-05T20:02:34.460Z,24.05
2022-09-05T20:05:07.707Z,23.98
2022-09-05T20:07:54.062Z,23.89
2022-09-05T20:10:33.700Z,23.75
2022-09-05T20:13:19.717Z,23.63
2022-09-05T20:15:47.294Z,23.63
2022-09-05T20:18:41.090Z,23.60
2022-09-05T20:21:29.538Z,23.54
2022-09-05T20:23:59.961Z,23.53
2022-09-05T20:26:33.423Z,23.44
2022-09-05T20:29:09.165Z,23.44
2022-09-05T20:31:36.887Z,23.49
2022-09-05T20:35:38.050Z,23.46
2022-09-05T20:43:16.719Z,23.40
2022-09-05T20:43:19.530Z,23.26
2022-09-05T20:43:35.595Z,23.23
2022-09-05T20:45:58.807Z,23.24
2022-09-05T20:54:07.173Z,23.19
2022-09-05T20:54:18.045Z,23.19
2022-09-05T20:54:39.363Z,23.21
2022-09-05T20:57:28.889Z,23.26
2022-09-05T21:00:14.132Z,23.22
2022-09-05T21:02:58.784Z,23.17
2022-09-05T21:05:33.229Z,23.14
2022-09-05T21:08:23.196Z,23.13
2022-09-05T21:11:00.775Z,23.08
2022-09-05T21:13:52.684Z,23.06
2022-09-05T21:16:31.423Z,23.03
2022-09-05T21:18:59.098Z,23.01
2022-09-05T21:21:34.819Z,22.95
2022-09-05T21:24:16.365Z,22.90
2022-09-05T21:26:48.399Z,22.88
2022-09-05T21:29:27.570Z,22.81
2022-09-05T21:32:05.587Z,22.79
2022-09-05T21:34:55.127Z,22.81
2022-09-05T21:37:23.502Z,22.81
2022-09-05T21:39:59.447Z,22.83
2022-09-05T21:46:07.247Z,22.75
2022-09-05T21:47:40.211Z,22.68
2022-09-05T21:48:16.543Z,22.64
2022-09-05T21:50:55.563Z,22.57
2022-09-05T21:56:29.705Z,22.54
2022-09-05T21:59:28.485Z,22.47
2022-09-05T21:59:41.472Z,22.41
2022-09-05T22:02:16.518Z,22.36
2022-09-05T22:04:44.531Z,22.36
2022-09-05T22:07:31.913Z,22.39
2022-09-05T22:10:04.176Z,22.32
2022-09-05T22:12:38.598Z,22.35
2022-09-05T22:15:27.282Z,22.28
2022-09-05T22:18:16.367Z,22.16
2022-09-05T22:21:09.849Z,22.14
2022-09-05T22:23:40.635Z,22.12
2022-09-05T22:26:08.001Z,22.09
2022-09-05T22:28:46.260Z,22.10
2022-09-05T22:31:13.732Z,22.08
2022-09-05T22:33:41.683Z,22.02
2022-09-05T22:36:09.232Z,21.96
2022-09-05T22:38:38.431Z,21.92
2022-09-05T22:41:06.218Z,21.95
2022-09-05T22:43:33.817Z,21.95
2022-09-05T22:46:01.938Z,21.88
2022-09-05T22:48:29.647Z,21.83
2022-09-05T22:50:57.541Z,21.80
2022-09-05T22:53:24.870Z,21.81
2022-09-05T22:56:03.964Z,21.80
2022-09-05T22:58:38.021Z,21.81
2022-09-05T23:01:06.910Z,21.75
2022-09-05T23:03:35.111Z,21.70
2022-09-05T23:06:09.210Z,21.73
2022-09-05T23:08:36.746Z,21.68
2022-09-05T23:11:17.283Z,21.63
2022-09-05T23:13:44.927Z,21.64
2022-09-05T23:16:12.535Z,21.68
2022-09-05T23:18:39.981Z,21.66
2022-09-05T23:21:14.447Z,21.64
2022-09-05T23:23:42.115Z,21.65
2022-09-05T23:26:13.793Z,21.66
2022-09-05T23:28:43.557Z,21.58
2022-09-05T23:31:12.593Z,21.57
2022-09-05T23:33:43.270Z,21.55
2022-09-05T23:36:15.960Z,21.59
2022-09-05T23:38:43.872Z,21.55
2022-09-05T23:41:42.198Z,21.51
2022-09-05T23:44:09.528Z,21.52
2022-09-05T23:46:37.835Z,21.50
2022-09-05T23:49:05.171Z,21.49
2022-09-05T23:51:32.388Z,21.41
2022-09-05T23:53:59.678Z,21.36
2022-09-05T23:56:26.893Z,21.32
2022-09-05T23:58:54.163Z,21.31
